Time;durP1;ratioP1;P1;durP2;ratioP2;P2;SDS_P1;SDS_P2;PMS_P1;PMS_P2;Temp;Humidity;BMP_temperature;BMP_pressure;BME280_temperature;BME280_humidity;BME280_pressure;Samples;Min_cycle;Max_cycle;Signal;HPM_P1;HPM_P2
2022/02/22 00:02:54;;;;;;;0.90;0.90;;;-0.20;99.90;;;;;;6286186;28;20292;-74
2022/02/22 00:06:04;;;;;;;1.10;1.10;;;-0.20;99.90;;;;;;6286706;28;20384;-75
2022/02/22 00:09:10;;;;;;;1.10;1.10;;;-0.20;99.90;;;;;;6285985;28;20303;-74
2022/02/22 00:12:16;;;;;;;2.00;1.07;;;-0.20;99.90;;;;;;6268000;28;20293;-75
2022/02/22 00:15:23;;;;;;;1.33;1.10;;;-0.30;99.90;;;;;;6286415;28;20276;-74
2022/02/22 00:18:28;;;;;;;0.97;0.97;;;-0.30;99.90;;;;;;6285941;28;20467;-75
2022/02/22 00:21:34;;;;;;;0.90;0.90;;;-0.30;99.90;;;;;;6286893;28;20278;-75
2022/02/22 00:24:39;;;;;;;1.00;1.00;;;-0.30;99.90;;;;;;6260483;28;20294;-75
2022/02/22 00:27:45;;;;;;;1.80;1.10;;;-0.30;99.90;;;;;;6260633;28;20307;-75
2022/02/22 00:30:51;;;;;;;1.00;1.00;;;-0.30;99.90;;;;;;6244200;28;20275;-75
2022/02/22 00:33:57;;;;;;;1.10;1.10;;;-0.30;99.90;;;;;;6260926;28;20316;-74
2022/02/22 00:37:02;;;;;;;2.23;1.07;;;-0.40;99.90;;;;;;6260294;28;20280;-75
2022/02/22 00:40:10;;;;;;;3.73;0.93;;;-0.40;99.90;;;;;;6261631;28;20270;-75
2022/02/22 00:43:16;;;;;;;1.43;0.90;;;-0.40;99.90;;;;;;6260755;28;20298;-75
2022/02/22 00:46:23;;;;;;;1.60;1.10;;;-0.30;99.90;;;;;;6261214;28;20295;-75
2022/02/22 00:49:29;;;;;;;1.90;1.20;;;-0.30;99.90;;;;;;6263140;28;20296;-75
2022/02/22 00:52:35;;;;;;;1.53;1.43;;;-0.30;99.90;;;;;;6265212;28;20292;-75
2022/02/22 00:55:40;;;;;;;1.20;1.20;;;-0.30;99.90;;;;;;6266680;28;20275;-75
2022/02/22 00:58:46;;;;;;;1.53;1.40;;;-0.30;99.90;;;;;;6265497;28;20300;-75
2022/02/22 01:01:53;;;;;;;1.00;1.00;;;-0.40;99.90;;;;;;6265852;28;20273;-75
2022/02/22 01:04:58;;;;;;;1.17;1.17;;;-0.40;99.90;;;;;;6265124;28;20276;-74
2022/02/22 01:08:03;;;;;;;3.53;1.30;;;-0.40;99.90;;;;;;6265221;28;20301;-75
2022/02/22 01:11:09;;;;;;;3.03;1.40;;;-0.40;99.90;;;;;;6265682;28;20426;-75
2022/02/22 01:14:15;;;;;;;0.90;0.90;;;-0.40;99.90;;;;;;6265508;28;20574;-75
2022/02/22 01:17:22;;;;;;;1.27;1.20;;;-0.40;99.90;;;;;;6265276;28;20681;-75
2022/02/22 01:20:27;;;;;;;1.20;1.10;;;-0.40;99.90;;;;;;6266189;28;20271;-73
2022/02/22 01:23:33;;;;;;;1.10;1.10;;;-0.40;99.90;;;;;;6280047;28;20622;-74
2022/02/22 01:26:39;;;;;;;1.00;1.00;;;-0.40;99.90;;;;;;6289307;28;20298;-74
2022/02/22 01:29:44;;;;;;;1.10;1.10;;;-0.40;99.90;;;;;;6290186;28;20316;-73
2022/02/22 01:32:51;;;;;;;1.03;1.03;;;-0.40;99.90;;;;;;6289352;28;20592;-74
2022/02/22 01:35:56;;;;;;;1.30;1.30;;;-0.40;99.90;;;;;;6290113;28;20274;-74
2022/02/22 01:39:02;;;;;;;1.10;1.10;;;-0.40;99.90;;;;;;6289837;28;20302;-74
2022/02/22 01:42:08;;;;;;;1.23;1.10;;;-0.40;99.90;;;;;;6289380;28;20273;-74
2022/02/22 01:45:13;;;;;;;1.20;1.20;;;-0.40;99.90;;;;;;6289697;28;20272;-74
2022/02/22 01:48:20;;;;;;;2.00;1.50;;;-0.50;99.90;;;;;;6288780;28;20299;-74
2022/02/22 01:51:25;;;;;;;1.20;1.20;;;-0.50;99.90;;;;;;6290018;28;20280;-74
2022/02/22 01:54:32;;;;;;;1.43;1.20;;;-0.50;99.90;;;;;;6289315;28;20476;-74
2022/02/22 01:57:37;;;;;;;1.67;1.57;;;-0.50;99.90;;;;;;6288470;28;20312;-74
2022/02/22 02:00:43;;;;;;;1.50;1.40;;;-0.50;99.90;;;;;;6288983;28;20276;-74
2022/02/22 02:03:53;;;;;;;1.70;1.30;;;-0.50;99.90;;;;;;6288685;28;20295;-74
2022/02/22 02:06:59;;;;;;;1.43;1.37;;;-0.60;99.90;;;;;;6288626;28;20654;-75
2022/02/22 02:10:05;;;;;;;4.00;1.60;;;-0.60;99.90;;;;;;6282720;28;20555;-74
2022/02/22 02:13:12;;;;;;;1.50;1.33;;;-0.50;99.90;;;;;;6288554;28;20296;-75
2022/02/22 02:16:18;;;;;;;1.50;1.50;;;-0.50;99.90;;;;;;6289522;28;20275;-75
2022/02/22 02:19:25;;;;;;;3.80;1.70;;;-0.60;99.90;;;;;;6288519;28;20296;-75
2022/02/22 02:22:32;;;;;;;1.73;1.70;;;-0.50;99.90;;;;;;6288864;28;20474;-74
2022/02/22 02:25:38;;;;;;;1.57;1.57;;;-0.50;99.90;;;;;;6288649;28;20366;-74
2022/02/22 02:28:43;;;;;;;2.63;1.80;;;-0.60;99.90;;;;;;6287911;28;20307;-74
2022/02/22 02:31:50;;;;;;;2.00;1.90;;;-0.60;99.90;;;;;;6287913;28;20271;-74
2022/02/22 02:34:58;;;;;;;1.60;1.50;;;-0.60;99.90;;;;;;6287378;28;20279;-74
2022/02/22 02:38:05;;;;;;;3.73;1.80;;;-0.70;99.90;;;;;;6288132;28;20314;-75
2022/02/22 02:41:17;;;;;;;1.60;1.50;;;-0.70;99.90;;;;;;6288732;28;20455;-74
2022/02/22 02:44:24;;;;;;;3.77;1.60;;;-0.80;99.90;;;;;;6288284;28;20301;-74
2022/02/22 02:47:29;;;;;;;2.90;1.77;;;-0.80;99.90;;;;;;6287233;28;20402;-74
2022/02/22 02:50:36;;;;;;;3.17;1.90;;;-0.90;99.90;;;;;;6288375;28;20442;-74
2022/02/22 02:53:43;;;;;;;1.70;1.60;;;-0.90;99.90;;;;;;6287437;28;20303;-74
2022/02/22 02:56:48;;;;;;;2.40;1.80;;;-1.00;99.90;;;;;;6287693;28;20274;-74
2022/02/22 02:59:53;;;;;;;4.80;1.60;;;-1.00;99.90;;;;;;6287035;28;20621;-75
2022/02/22 03:02:59;;;;;;;1.93;1.93;;;-1.00;99.90;;;;;;6287461;28;20609;-75
2022/02/22 03:06:06;;;;;;;2.17;1.93;;;-1.10;99.90;;;;;;6287533;28;20279;-75
2022/02/22 03:09:13;;;;;;;2.10;2.00;;;-1.20;99.90;;;;;;6287447;28;20301;-75
2022/02/22 03:12:18;;;;;;;1.97;1.87;;;-1.10;99.90;;;;;;6286640;28;20297;-75
2022/02/22 03:15:24;;;;;;;2.00;2.00;;;-1.20;99.90;;;;;;6287904;28;20277;-74
2022/02/22 03:18:29;;;;;;;2.20;2.10;;;-1.30;99.90;;;;;;6287373;28;20299;-75
2022/02/22 03:21:38;;;;;;;2.00;1.90;;;-1.30;99.90;;;;;;6286840;28;20276;-75
2022/02/22 03:24:45;;;;;;;1.93;1.83;;;-1.30;99.90;;;;;;6286606;28;20292;-74
2022/02/22 03:27:50;;;;;;;2.60;2.27;;;-1.40;99.90;;;;;;6286330;28;20303;-75
2022/02/22 03:30:56;;;;;;;2.00;1.83;;;-1.40;99.90;;;;;;6287079;28;20590;-74
2022/02/22 03:34:01;;;;;;;2.73;1.77;;;-1.40;99.90;;;;;;6287412;28;20302;-75
2022/02/22 03:37:07;;;;;;;2.83;2.20;;;-1.40;99.90;;;;;;6286410;28;20439;-74
2022/02/22 03:40:16;;;;;;;2.23;2.03;;;-1.50;99.90;;;;;;6286840;28;20273;-73
2022/02/22 03:43:21;;;;;;;1.77;1.77;;;-1.50;99.90;;;;;;6286523;28;20296;-74
2022/02/22 03:46:26;;;;;;;2.73;2.03;;;-1.60;99.90;;;;;;6286890;28;20274;-74
2022/02/22 03:49:31;;;;;;;2.03;1.80;;;-1.60;99.90;;;;;;6286926;28;20301;-74
2022/02/22 03:52:38;;;;;;;1.97;1.87;;;-1.60;99.90;;;;;;6286615;28;20301;-74
2022/02/22 03:55:44;;;;;;;1.73;1.73;;;-1.70;99.90;;;;;;6287683;28;20273;-74
2022/02/22 03:58:50;;;;;;;1.77;1.77;;;-1.70;99.90;;;;;;6286139;28;20456;-74
2022/02/22 04:01:55;;;;;;;1.90;1.80;;;-1.80;99.90;;;;;;6286017;28;20280;-74
2022/02/22 04:05:01;;;;;;;2.37;2.20;;;-1.80;99.90;;;;;;6285236;28;20277;-74
2022/02/22 04:08:07;;;;;;;1.80;1.77;;;-1.80;99.90;;;;;;6286118;28;20458;-74
2022/02/22 04:11:14;;;;;;;2.10;2.00;;;-1.80;99.90;;;;;;6281772;28;20282;-74
2022/02/22 04:14:19;;;;;;;1.97;1.87;;;-1.70;99.90;;;;;;6286388;28;20292;-74
2022/02/22 04:17:25;;;;;;;2.03;1.80;;;-1.80;99.90;;;;;;6286037;28;20317;-74
2022/02/22 04:20:30;;;;;;;3.90;2.23;;;-2.00;99.90;;;;;;6285464;28;20265;-75
2022/02/22 04:23:35;;;;;;;2.13;2.00;;;-1.90;99.90;;;;;;6288484;28;20305;-74
2022/02/22 04:26:43;;;;;;;2.03;1.87;;;-1.90;99.90;;;;;;6291927;28;20403;-74
2022/02/22 04:29:48;;;;;;;4.20;2.10;;;-2.00;99.90;;;;;;6291246;28;20302;-74
2022/02/22 04:32:53;;;;;;;2.13;1.80;;;-2.00;99.90;;;;;;6291466;28;20297;-73
2022/02/22 04:35:59;;;;;;;1.63;1.63;;;-2.10;99.90;;;;;;6291036;28;20266;-74
2022/02/22 04:39:06;;;;;;;1.77;1.77;;;-2.10;99.90;;;;;;6291037;28;20295;-74
2022/02/22 04:42:13;;;;;;;1.90;1.90;;;-2.10;99.90;;;;;;6290888;28;20527;-75
2022/02/22 04:45:19;;;;;;;3.90;1.90;;;-2.20;99.90;;;;;;6291211;28;20263;-74
2022/02/22 04:48:24;;;;;;;2.00;2.00;;;-2.30;99.90;;;;;;6291064;28;20583;-75
2022/02/22 04:51:29;;;;;;;4.43;1.70;;;-2.30;99.90;;;;;;6290893;28;20292;-74
2022/02/22 04:54:35;;;;;;;2.23;2.00;;;-2.40;99.90;;;;;;6290435;28;20296;-73
2022/02/22 04:57:42;;;;;;;2.57;2.03;;;-2.30;99.90;;;;;;6290842;28;20296;-74
2022/02/22 05:00:47;;;;;;;2.73;2.13;;;-2.30;99.90;;;;;;6290604;28;20462;-74
2022/02/22 05:03:53;;;;;;;1.60;1.60;;;-2.30;99.90;;;;;;6290568;28;20300;-74
2022/02/22 05:06:59;;;;;;;1.90;1.80;;;-2.30;99.90;;;;;;6290412;28;20461;-75
2022/02/22 05:10:05;;;;;;;2.27;1.83;;;-2.40;99.90;;;;;;6290955;28;20284;-74
2022/02/22 05:13:13;;;;;;;3.13;1.80;;;-2.30;99.90;;;;;;6291227;28;20301;-73
2022/02/22 05:16:19;;;;;;;2.07;1.97;;;-2.30;99.90;;;;;;6283280;28;20277;-74
2022/02/22 05:19:25;;;;;;;2.13;1.60;;;-2.30;99.90;;;;;;6290001;28;20296;-74
2022/02/22 05:22:39;;;;;;;1.90;1.80;;;-2.30;99.90;;;;;;6290606;28;20348;-74
2022/02/22 05:25:45;;;;;;;1.80;1.80;;;-2.30;99.90;;;;;;6290836;28;20269;-75
2022/02/22 05:28:51;;;;;;;1.93;1.93;;;-2.30;99.90;;;;;;6290010;28;20301;-75
2022/02/22 05:31:57;;;;;;;4.17;2.03;;;-2.30;99.90;;;;;;6289248;28;20288;-75
2022/02/22 05:35:03;;;;;;;2.13;1.97;;;-2.40;99.90;;;;;;6289907;28;20272;-75
2022/02/22 05:38:12;;;;;;;2.40;2.20;;;-2.30;99.90;;;;;;6290029;28;20582;-75
2022/02/22 05:41:18;;;;;;;1.83;1.70;;;-2.30;99.90;;;;;;6289842;28;20276;-74
2022/02/22 05:44:25;;;;;;;2.23;2.03;;;-2.40;99.90;;;;;;6290097;28;20292;-75
2022/02/22 05:47:30;;;;;;;2.17;2.00;;;-2.40;99.90;;;;;;6289454;28;20291;-75
2022/02/22 05:50:38;;;;;;;2.50;1.60;;;-2.50;99.90;;;;;;6290215;28;20300;-75
2022/02/22 05:53:43;;;;;;;1.93;1.93;;;-2.50;99.90;;;;;;6289090;28;20300;-74
2022/02/22 05:56:51;;;;;;;4.10;1.80;;;-2.50;99.90;;;;;;6290375;28;20268;-74
2022/02/22 05:59:58;;;;;;;1.93;1.83;;;-2.40;99.90;;;;;;6289512;28;20300;-74
2022/02/22 06:03:03;;;;;;;1.80;1.80;;;-2.50;99.90;;;;;;6289290;28;20313;-74
2022/02/22 06:06:10;;;;;;;1.80;1.80;;;-2.50;99.90;;;;;;6289037;28;20588;-73
2022/02/22 06:09:15;;;;;;;2.10;1.93;;;-2.50;99.90;;;;;;6289545;28;20330;-73
2022/02/22 06:12:20;;;;;;;2.20;1.60;;;-2.50;99.90;;;;;;6281651;28;20317;-73
2022/02/22 06:15:27;;;;;;;1.67;1.63;;;-2.50;99.90;;;;;;6289770;28;20271;-74
2022/02/22 06:18:32;;;;;;;2.50;1.67;;;-2.60;99.90;;;;;;6288766;28;20297;-75
2022/02/22 06:21:37;;;;;;;1.60;1.60;;;-2.60;99.90;;;;;;6289118;28;20275;-75
2022/02/22 06:24:43;;;;;;;1.97;1.80;;;-2.60;99.90;;;;;;6289161;28;20295;-74
2022/02/22 06:27:50;;;;;;;1.97;1.87;;;-2.50;99.90;;;;;;6287586;28;20306;-74
2022/02/22 06:30:56;;;;;;;1.90;1.80;;;-2.60;99.90;;;;;;6287969;28;20616;-75
2022/02/22 06:34:04;;;;;;;1.57;1.57;;;-2.50;99.90;;;;;;6287635;28;20297;-74
2022/02/22 06:37:11;;;;;;;1.80;1.80;;;-2.60;99.90;;;;;;6288070;28;20271;-74
2022/02/22 06:40:17;;;;;;;2.03;1.93;;;-2.50;99.90;;;;;;6280650;28;20273;-74
2022/02/22 06:43:28;;;;;;;1.77;1.70;;;-2.50;99.90;;;;;;6288084;28;20305;-74
2022/02/22 06:46:35;;;;;;;2.17;1.93;;;-2.50;99.90;;;;;;6287664;28;20265;-74
2022/02/22 06:49:41;;;;;;;1.83;1.70;;;-2.40;99.90;;;;;;6270408;28;20294;-74
2022/02/22 06:52:46;;;;;;;1.87;1.77;;;-2.40;99.90;;;;;;6287517;28;20300;-74
2022/02/22 06:55:51;;;;;;;1.70;1.70;;;-2.40;99.90;;;;;;6288341;28;20332;-74
2022/02/22 06:58:58;;;;;;;2.73;1.83;;;-2.40;99.90;;;;;;6287513;28;20332;-73
2022/02/22 07:02:04;;;;;;;2.23;1.93;;;-2.40;99.90;;;;;;6288478;28;20275;-75
2022/02/22 07:05:11;;;;;;;1.80;1.70;;;-2.40;99.90;;;;;;6288045;28;20273;-75
2022/02/22 07:08:23;;;;;;;1.53;1.53;;;-2.40;99.90;;;;;;6287093;28;20296;-74
2022/02/22 07:11:30;;;;;;;2.70;1.97;;;-2.30;99.90;;;;;;6287762;28;20292;-75
2022/02/22 07:14:37;;;;;;;2.00;1.97;;;-2.30;99.90;;;;;;6286900;28;20296;-75
2022/02/22 07:17:50;;;;;;;2.93;1.67;;;-2.40;99.90;;;;;;6287281;28;20295;-74
2022/02/22 07:20:55;;;;;;;1.80;1.70;;;-2.30;99.90;;;;;;6287688;28;20271;-74
2022/02/22 07:24:01;;;;;;;2.90;1.93;;;-2.30;99.90;;;;;;6286452;28;20300;-74
2022/02/22 07:27:06;;;;;;;2.03;2.00;;;-2.20;99.90;;;;;;6286223;28;20263;-75
2022/02/22 07:30:16;;;;;;;1.93;1.93;;;-2.30;99.90;;;;;;6287144;28;20273;-75
2022/02/22 07:33:21;;;;;;;2.30;2.10;;;-2.30;99.90;;;;;;6286629;28;20388;-74
2022/02/22 07:36:26;;;;;;;2.00;1.90;;;-2.40;99.90;;;;;;6287126;28;20272;-74
2022/02/22 07:39:32;;;;;;;2.30;2.00;;;-2.30;99.90;;;;;;6286519;28;20296;-74
2022/02/22 07:42:37;;;;;;;2.30;2.30;;;-2.30;99.90;;;;;;6287045;28;20596;-74
2022/02/22 07:45:44;;;;;;;1.60;1.60;;;-2.30;99.90;;;;;;6286516;28;20272;-74
2022/02/22 07:48:50;;;;;;;3.70;2.20;;;-2.30;99.90;;;;;;6286449;28;20295;-74
2022/02/22 07:51:55;;;;;;;1.90;1.90;;;-2.30;99.90;;;;;;6286772;28;20289;-74
2022/02/22 07:55:01;;;;;;;2.10;2.00;;;-2.20;99.90;;;;;;6286084;28;20421;-74
2022/02/22 07:58:06;;;;;;;2.33;2.13;;;-2.10;99.90;;;;;;6286475;28;20296;-74
2022/02/22 08:01:13;;;;;;;2.20;2.10;;;-2.20;99.90;;;;;;6286958;28;20277;-74
2022/02/22 08:04:19;;;;;;;2.03;1.93;;;-2.20;99.90;;;;;;6286684;28;20315;-74
2022/02/22 08:07:26;;;;;;;1.90;1.90;;;-2.20;99.90;;;;;;6285561;28;20296;-74
2022/02/22 08:10:31;;;;;;;1.90;1.90;;;-2.20;99.90;;;;;;6286040;28;20272;-73
2022/02/22 08:13:37;;;;;;;2.97;1.87;;;-2.10;99.90;;;;;;6286317;28;20327;-74
2022/02/22 08:16:43;;;;;;;2.13;1.73;;;-2.10;99.90;;;;;;6286854;28;20445;-74
2022/02/22 08:19:49;;;;;;;2.70;2.60;;;-2.00;99.90;;;;;;6286462;28;20293;-74
2022/02/22 08:22:54;;;;;;;2.07;2.00;;;-2.00;99.90;;;;;;6285533;28;20466;-74
2022/02/22 08:26:00;;;;;;;2.20;2.10;;;-1.90;99.90;;;;;;6285645;28;20273;-74
2022/02/22 08:29:06;;;;;;;1.97;1.83;;;-1.80;99.90;;;;;;6285158;28;20302;-74
2022/02/22 08:32:13;;;;;;;2.00;2.00;;;-2.10;99.90;;;;;;6285369;28;20278;-74
2022/02/22 08:35:18;;;;;;;2.13;2.10;;;-2.00;99.90;;;;;;6286215;28;20277;-73
2022/02/22 08:38:24;;;;;;;2.00;2.00;;;-2.00;99.90;;;;;;6285891;28;20462;-74
2022/02/22 08:41:29;;;;;;;2.03;1.93;;;-2.00;99.90;;;;;;6285698;28;20273;-75
2022/02/22 08:44:35;;;;;;;5.10;2.10;;;-1.90;99.90;;;;;;6285446;28;20470;-75
2022/02/22 08:47:42;;;;;;;2.00;1.90;;;-2.10;99.90;;;;;;6285694;28;20301;-75
2022/02/22 08:50:50;;;;;;;1.97;1.80;;;-2.00;99.90;;;;;;6285227;28;20273;-74
2022/02/22 08:53:55;;;;;;;2.80;2.30;;;-2.00;99.90;;;;;;6284951;28;20299;-75
2022/02/22 08:57:00;;;;;;;2.60;2.33;;;-2.00;99.90;;;;;;6285313;28;20279;-75
2022/02/22 09:00:10;;;;;;;2.47;2.30;;;-1.90;99.90;;;;;;6267938;28;20273;-74
2022/02/22 09:03:20;;;;;;;3.70;1.87;;;-1.90;99.90;;;;;;6285728;28;20301;-74
2022/02/22 09:06:25;;;;;;;2.13;2.03;;;-1.80;99.90;;;;;;6285620;28;20453;-74
2022/02/22 09:09:31;;;;;;;2.20;2.10;;;-1.80;99.90;;;;;;6284109;28;20318;-75
2022/02/22 09:12:36;;;;;;;2.13;2.03;;;-1.80;99.90;;;;;;6285019;28;20305;-75
2022/02/22 09:15:43;;;;;;;2.40;2.20;;;-1.70;99.90;;;;;;6290702;28;20274;-74
2022/02/22 09:18:50;;;;;;;5.47;2.57;;;-1.80;99.90;;;;;;6289829;28;20302;-75
2022/02/22 09:21:55;;;;;;;2.50;2.30;;;-1.70;99.90;;;;;;6289047;28;20273;-74
2022/02/22 09:25:01;;;;;;;3.03;2.07;;;-1.70;99.90;;;;;;6289737;28;20306;-74
2022/02/22 09:28:08;;;;;;;2.07;1.97;;;-1.90;99.90;;;;;;6289832;28;20296;-74
2022/02/22 09:31:14;;;;;;;2.30;2.30;;;-1.90;99.90;;;;;;6288977;28;20272;-74
2022/02/22 09:34:22;;;;;;;2.00;1.90;;;-1.90;99.90;;;;;;6289289;28;20318;-74
2022/02/22 09:37:27;;;;;;;2.70;1.90;;;-1.90;99.90;;;;;;6288958;28;20617;-74
2022/02/22 09:40:33;;;;;;;2.80;2.50;;;-1.60;99.90;;;;;;6289958;28;20419;-74
2022/02/22 09:43:38;;;;;;;2.80;1.83;;;-1.60;99.90;;;;;;6289290;28;20302;-74
2022/02/22 09:46:44;;;;;;;2.40;2.30;;;-1.80;99.90;;;;;;6289020;28;20269;-74
2022/02/22 09:49:51;;;;;;;2.37;2.27;;;-1.70;99.90;;;;;;6289435;28;20461;-73
2022/02/22 09:52:58;;;;;;;2.67;2.47;;;-1.70;99.90;;;;;;6288660;28;20482;-74
2022/02/22 09:56:03;;;;;;;2.67;2.50;;;-1.80;99.90;;;;;;6288773;28;20483;-74
2022/02/22 09:59:09;;;;;;;4.63;2.40;;;-1.70;99.90;;;;;;6288294;28;20307;-74
2022/02/22 10:02:15;;;;;;;2.93;1.90;;;-1.70;99.90;;;;;;6288867;28;20275;-74
2022/02/22 10:05:25;;;;;;;2.13;2.13;;;-1.70;99.90;;;;;;6288478;28;20279;-74
2022/02/22 10:08:33;;;;;;;4.50;2.03;;;-1.70;99.90;;;;;;6271209;28;20677;-74
2022/02/22 10:11:46;;;;;;;2.30;2.20;;;-1.70;99.90;;;;;;6288519;28;20565;-73
2022/02/22 10:14:57;;;;;;;1.87;1.87;;;-1.80;99.90;;;;;;6288389;28;20304;-73
2022/02/22 10:18:03;;;;;;;2.60;2.50;;;-1.70;99.90;;;;;;6287850;28;20303;-73
2022/02/22 10:21:10;;;;;;;2.90;2.07;;;-1.60;99.90;;;;;;6288513;28;20278;-74
2022/02/22 10:24:19;;;;;;;2.50;2.40;;;-1.90;99.90;;;;;;6287239;28;20308;-73
2022/02/22 10:27:24;;;;;;;3.17;2.10;;;-1.70;99.90;;;;;;6287847;28;20294;-74
2022/02/22 10:30:43;;;;;;;2.90;2.20;;;-1.80;99.90;;;;;;6289016;28;20273;-74
2022/02/22 10:33:49;;;;;;;2.30;2.20;;;-1.90;99.90;;;;;;6288223;28;20447;-74
2022/02/22 10:37:15;;;;;;;2.50;2.13;;;-1.90;99.90;;;;;;6287802;28;20267;-73
2022/02/22 10:40:27;;;;;;;3.17;2.77;;;-1.90;99.90;;;;;;6288308;28;20273;-74
2022/02/22 10:43:36;;;;;;;2.60;2.07;;;-1.80;99.90;;;;;;6287845;28;20297;-74
2022/02/22 10:46:45;;;;;;;2.27;2.13;;;-2.00;99.90;;;;;;6288617;28;20279;-74
2022/02/22 10:49:51;;;;;;;2.43;2.33;;;-2.00;99.90;;;;;;6287930;28;20317;-74
2022/02/22 10:52:58;;;;;;;2.30;2.20;;;-1.80;99.90;;;;;;6287397;28;20606;-74
2022/02/22 10:56:10;;;;;;;2.33;2.23;;;-2.00;99.90;;;;;;6287225;28;20576;-74
2022/02/22 10:59:15;;;;;;;2.10;2.00;;;-1.80;99.90;;;;;;6287940;28;20302;-74
2022/02/22 11:02:21;;;;;;;2.33;2.10;;;-1.80;99.90;;;;;;6279515;28;20294;-73
2022/02/22 11:05:27;;;;;;;2.33;2.23;;;-1.80;99.90;;;;;;6287565;28;20280;-74
2022/02/22 11:08:36;;;;;;;2.23;2.23;;;-1.90;99.90;;;;;;6286904;28;20465;-74
2022/02/22 11:11:44;;;;;;;2.40;2.23;;;-1.80;99.90;;;;;;6280381;28;20266;-74
2022/02/22 11:14:50;;;;;;;2.53;2.37;;;-1.70;99.90;;;;;;6287355;28;20305;-74
2022/02/22 11:17:57;;;;;;;2.30;2.20;;;-1.90;99.90;;;;;;6286410;28;20585;-74
2022/02/22 11:21:09;;;;;;;2.47;2.43;;;-1.70;99.90;;;;;;6287989;28;20290;-74
2022/02/22 11:24:18;;;;;;;2.10;2.10;;;-1.70;99.90;;;;;;6287315;28;20589;-74
2022/02/22 11:27:29;;;;;;;2.10;2.00;;;-1.60;99.90;;;;;;6287282;28;20298;-74
2022/02/22 11:30:35;;;;;;;2.97;1.97;;;-1.70;99.90;;;;;;6287291;28;20273;-74
2022/02/22 11:33:44;;;;;;;3.07;2.10;;;-1.70;99.90;;;;;;6286106;28;20297;-74
2022/02/22 11:36:53;;;;;;;2.63;2.57;;;-1.60;99.90;;;;;;6287514;28;20292;-74
2022/02/22 11:40:00;;;;;;;3.90;2.30;;;-1.50;99.90;;;;;;6286669;28;20281;-74
2022/02/22 11:43:08;;;;;;;3.13;2.33;;;-1.50;99.90;;;;;;6286251;28;20488;-74
2022/02/22 11:46:13;;;;;;;2.10;2.10;;;-1.60;99.90;;;;;;6287393;28;20279;-74
2022/02/22 11:49:25;;;;;;;3.30;2.87;;;-1.40;99.90;;;;;;6286414;28;20302;-75
2022/02/22 11:52:49;;;;;;;2.80;2.13;;;-1.50;99.90;;;;;;6285910;28;20301;-74
2022/02/22 11:55:57;;;;;;;2.90;2.47;;;-1.70;99.90;;;;;;6285980;28;20291;-75
2022/02/22 11:59:16;;;;;;;3.07;2.43;;;-1.60;99.90;;;;;;6286231;28;20302;-74
2022/02/22 12:02:29;;;;;;;2.63;2.50;;;-1.40;99.90;;;;;;6286089;28;20295;-75
2022/02/22 12:05:39;;;;;;;2.63;2.43;;;-1.50;99.90;;;;;;6286618;28;20557;-74
2022/02/22 12:08:48;;;;;;;2.70;2.50;;;-1.50;99.90;;;;;;6286252;28;20294;-74
2022/02/22 12:12:05;;;;;;;4.00;2.50;;;-1.70;99.90;;;;;;6286360;28;20270;-74
2022/02/22 12:15:11;;;;;;;2.80;2.60;;;-1.60;99.90;;;;;;6285792;28;20282;-74
2022/02/22 12:18:19;;;;;;;2.47;2.30;;;-1.50;99.90;;;;;;6277603;28;20301;-74
2022/02/22 12:21:27;;;;;;;2.50;2.30;;;-1.40;99.90;;;;;;6286533;28;20437;-73
2022/02/22 12:24:32;;;;;;;2.53;2.40;;;-1.50;99.90;;;;;;6285877;28;20297;-73
2022/02/22 12:27:40;;;;;;;2.43;2.23;;;-1.50;99.90;;;;;;6285788;28;20601;-73
2022/02/22 12:30:46;;;;;;;2.40;2.30;;;-1.60;99.90;;;;;;6286670;28;20278;-74
2022/02/22 12:33:51;;;;;;;2.70;2.50;;;-1.60;99.90;;;;;;6267928;28;20297;-74
2022/02/22 12:37:00;;;;;;;2.73;2.30;;;-1.70;99.90;;;;;;6284969;28;20297;-73
2022/02/22 12:40:11;;;;;;;4.20;2.30;;;-1.70;99.90;;;;;;6285543;28;20277;-74
2022/02/22 12:43:21;;;;;;;2.50;2.40;;;-1.80;99.90;;;;;;6285172;28;20302;-73
2022/02/22 12:46:29;;;;;;;3.20;2.33;;;-1.90;99.90;;;;;;6289972;28;20277;-73
2022/02/22 12:49:35;;;;;;;3.03;2.40;;;-2.00;99.90;;;;;;6290056;28;20302;-73
2022/02/22 12:52:40;;;;;;;2.27;2.07;;;-1.90;99.90;;;;;;6289935;28;20297;-73
2022/02/22 12:55:54;;;;;;;2.90;2.33;;;-1.90;99.90;;;;;;6290803;28;20296;-73
2022/02/22 12:59:01;;;;;;;2.50;2.30;;;-1.90;99.90;;;;;;6290529;28;20295;-73
2022/02/22 13:02:08;;;;;;;2.63;2.33;;;-1.80;99.90;;;;;;6289570;28;20290;-74
2022/02/22 13:05:15;;;;;;;2.60;2.50;;;-1.70;99.90;;;;;;6290138;28;20267;-73
2022/02/22 13:08:30;;;;;;;2.80;2.60;;;-1.70;99.90;;;;;;6283971;28;20299;-73
2022/02/22 13:11:37;;;;;;;2.57;2.47;;;-1.60;99.90;;;;;;6282520;28;20275;-73
2022/02/22 13:14:46;;;;;;;2.80;2.60;;;-1.70;99.90;;;;;;6289641;28;20298;-73
2022/02/22 13:17:54;;;;;;;2.97;2.70;;;-1.50;99.90;;;;;;6289382;28;20302;-73
2022/02/22 13:21:00;;;;;;;2.13;2.03;;;-1.70;99.90;;;;;;6290096;28;20651;-73
2022/02/22 13:24:12;;;;;;;2.87;2.70;;;-1.70;99.90;;;;;;6268274;28;20295;-73
2022/02/22 13:27:17;;;;;;;2.87;2.40;;;-1.60;99.90;;;;;;6263736;28;20478;-74
2022/02/22 13:30:25;;;;;;;3.70;2.40;;;-1.70;99.90;;;;;;6265538;28;20450;-73
2022/02/22 13:33:37;;;;;;;2.60;2.50;;;-1.70;99.90;;;;;;6264796;28;20296;-73
2022/02/22 13:36:57;;;;;;;2.90;2.70;;;-1.60;99.90;;;;;;6264696;28;20299;-73
2022/02/22 13:40:06;;;;;;;2.17;2.17;;;-1.60;99.90;;;;;;6264281;28;20288;-73
2022/02/22 13:43:14;;;;;;;2.23;2.00;;;-1.90;99.90;;;;;;6264467;28;20590;-73
2022/02/22 13:46:29;;;;;;;2.40;2.20;;;-1.90;99.90;;;;;;6264636;28;20274;-73
2022/02/22 13:49:46;;;;;;;2.57;2.47;;;-1.80;99.90;;;;;;6264424;28;20582;-73
2022/02/22 13:52:57;;;;;;;2.63;2.40;;;-2.00;99.90;;;;;;6264448;28;20311;-73
2022/02/22 13:56:05;;;;;;;2.63;2.43;;;-2.20;99.90;;;;;;6263588;28;20271;-73
2022/02/22 13:59:12;;;;;;;8.13;2.80;;;-2.10;99.90;;;;;;6264012;28;20599;-74
2022/02/22 14:02:29;;;;;;;1.90;1.90;;;-2.10;99.90;;;;;;6263932;28;20318;-73
2022/02/22 14:05:34;;;;;;;1.80;1.70;;;-2.10;99.90;;;;;;6264333;28;20278;-73
2022/02/22 14:08:40;;;;;;;2.97;2.13;;;-2.00;99.90;;;;;;6264079;28;20302;-73
2022/02/22 14:11:49;;;;;;;2.00;2.00;;;-1.90;99.90;;;;;;6264176;28;20267;-73
2022/02/22 14:14:54;;;;;;;2.53;2.30;;;-2.00;99.90;;;;;;6263256;28;20298;-73
2022/02/22 14:18:02;;;;;;;2.30;2.20;;;-1.90;99.90;;;;;;6263670;28;20469;-73
2022/02/22 14:21:08;;;;;;;2.60;2.50;;;-2.00;99.90;;;;;;6263984;28;20278;-73
2022/02/22 14:24:15;;;;;;;2.73;2.53;;;-2.00;99.90;;;;;;6284386;28;20305;-73
2022/02/22 14:27:20;;;;;;;2.30;2.20;;;-2.00;99.90;;;;;;6287455;28;20295;-74
2022/02/22 14:30:28;;;;;;;2.20;2.10;;;-2.00;99.90;;;;;;6289390;28;20274;-72
2022/02/22 14:33:35;;;;;;;2.00;1.97;;;-2.10;99.90;;;;;;6288443;28;20298;-72
2022/02/22 14:36:41;;;;;;;2.13;2.03;;;-2.20;99.90;;;;;;6289167;28;20278;-73
2022/02/22 14:39:46;;;;;;;2.40;2.30;;;-2.20;99.90;;;;;;6288405;28;20489;-73
2022/02/22 14:42:53;;;;;;;2.20;2.10;;;-2.30;99.90;;;;;;6287387;28;20298;-72
2022/02/22 14:45:58;;;;;;;2.37;2.27;;;-2.20;99.90;;;;;;6288306;28;20269;-72
2022/02/22 14:49:05;;;;;;;2.20;2.10;;;-2.20;99.90;;;;;;6287925;28;20299;-72
2022/02/22 14:52:11;;;;;;;2.10;2.10;;;-2.30;99.90;;;;;;6287089;28;20271;-72
2022/02/22 14:55:38;;;;;;;2.30;2.20;;;-2.30;99.90;;;;;;6287910;28;20299;-73
2022/02/22 14:58:43;;;;;;;2.13;2.03;;;-2.30;99.90;;;;;;6287477;28;20306;-72
2022/02/22 15:01:50;;;;;;;2.60;1.73;;;-2.30;99.90;;;;;;6288313;28;20274;-72
2022/02/22 15:04:56;;;;;;;2.00;2.00;;;-2.40;99.90;;;;;;6287927;28;20310;-72
2022/02/22 15:08:04;;;;;;;2.20;2.13;;;-2.40;99.90;;;;;;6268671;28;20297;-72
2022/02/22 15:11:10;;;;;;;2.10;1.90;;;-2.40;99.90;;;;;;6279754;28;20267;-72
2022/02/22 15:14:16;;;;;;;1.80;1.80;;;-2.40;99.90;;;;;;6288029;28;20306;-72
2022/02/22 15:17:21;;;;;;;2.13;2.13;;;-2.40;99.90;;;;;;6286807;28;20293;-72
2022/02/22 15:20:29;;;;;;;2.23;2.07;;;-2.30;99.90;;;;;;6287559;28;20272;-74
2022/02/22 15:23:34;;;;;;;2.00;1.90;;;-2.40;99.90;;;;;;6286806;28;20578;-74
2022/02/22 15:26:40;;;;;;;4.13;2.20;;;-2.40;99.90;;;;;;6287562;28;20275;-73
2022/02/22 15:29:45;;;;;;;2.67;2.00;;;-2.50;99.90;;;;;;6287015;28;20306;-73
2022/02/22 15:32:51;;;;;;;1.80;1.80;;;-2.50;99.90;;;;;;6286296;28;20298;-74
2022/02/22 15:35:58;;;;;;;1.80;1.73;;;-2.50;99.90;;;;;;6287113;28;20278;-73
2022/02/22 15:39:06;;;;;;;2.23;2.13;;;-2.50;99.90;;;;;;6286681;28;20301;-73
2022/02/22 15:42:12;;;;;;;2.23;2.10;;;-2.50;99.90;;;;;;6286199;28;20463;-74
2022/02/22 15:45:18;;;;;;;2.00;1.90;;;-2.50;99.90;;;;;;6287228;28;20552;-73
2022/02/22 15:48:23;;;;;;;1.87;1.77;;;-2.60;99.90;;;;;;6286299;28;20306;-73
2022/02/22 15:51:31;;;;;;;1.93;1.90;;;-2.60;99.90;;;;;;6286423;28;20274;-73
2022/02/22 15:54:36;;;;;;;2.10;2.00;;;-2.70;99.90;;;;;;6285855;28;20302;-74
2022/02/22 15:57:43;;;;;;;2.10;2.07;;;-2.70;99.90;;;;;;6286872;28;20298;-74
2022/02/22 16:00:48;;;;;;;2.33;2.10;;;-2.70;99.90;;;;;;6285924;28;20423;-74
2022/02/22 16:03:54;;;;;;;2.10;2.00;;;-2.70;99.90;;;;;;6286373;28;20290;-74
2022/02/22 16:07:01;;;;;;;2.40;2.30;;;-2.70;99.90;;;;;;6285695;28;20276;-73
2022/02/22 16:10:06;;;;;;;2.87;2.00;;;-2.70;99.90;;;;;;6285602;28;20453;-74
2022/02/22 16:13:15;;;;;;;2.20;2.10;;;-2.70;99.90;;;;;;6285742;28;20301;-74
2022/02/22 16:16:21;;;;;;;1.90;1.90;;;-2.70;99.90;;;;;;6279154;28;20595;-74